Weather History for Mustang Island A85A, TX

Change the Weather History Date:

Tuesday, March 4, 2014

  Actual Average Record
Temperature  
Mean Temperature 48 °F -  
Max Temperature 55 °F - - ()
Min Temperature 41 °F - - ()
Degree Days  
Heating Degree Days 17    
Moisture  
Dew Point 45 °F    
Average Humidity 91    
Maximum Humidity 100    
Minimum Humidity 77    
Precipitation  
Precipitation 1.43 in - - ()
Sea Level Pressure  
Sea Level Pressure 30.09 in    
Wind  
Wind Speed 21 mph (North)    
Max Wind Speed 34 mph    
Max Gust Speed 43 mph    
Visibility 5 miles    
Events      
T = Trace of Precipitation, MM = Missing Value Source: NWS Daily Summary

Daily Weather History Graph

Daily Weather History Graph

Search for Another Location

Airport:

Trip Planner

Search our weather history database for the weather conditions in past years. The results will help you decide how hot, cold, wet, or windy it might be!

Date:

Astronomy

Mar. 04, 2014 Rise Set
Actual Time 6:46 AM CST 6:27 PM CST
Civil Twilight 6:22 AM CST 6:50 PM CST
Nautical Twilight 5:55 AM CST 7:17 PM CST
Astronomical Twilight 5:28 AM CST 7:44 PM CST
Moon 8:54 AM CST (3/4) 10:11 PM CST (3/4)
Length of Visible Light 12h 27m
Length of Day
11h 41m
Waxing Crescent, 15% of the Moon is Illuminated
Mar 4
Waxing Crescent
Mar 8
First Quarter
Mar 16
Full
Mar 23
Last Quarter
Mar 30
New

Hourly Weather History & Observations

Time (CST) Temp. Windchill Dew Point Humidity Pressure Visibility Wind Dir Wind Speed Gust Speed Precip Events Conditions
12:15 AM 46.4 °F 38.5 °F 41.0 °F 81% 30.18 in 10.0 mi North 21.9 mph 29.9 mph N/A   Mostly Cloudy
12:30 AM 46.4 °F 38.5 °F 41.0 °F 81% 30.19 in 7.0 mi North 21.9 mph 27.6 mph N/A   Mostly Cloudy
12:55 AM 44.6 °F 35.9 °F 41.0 °F 87% 30.18 in 1.5 mi NNW 23.0 mph - 0.09 in   Mostly Cloudy
1:15 AM 44.6 °F 35.9 °F 41.0 °F 87% 30.16 in 3.0 mi North 23.0 mph 28.8 mph N/A   Scattered Clouds
1:35 AM 44.6 °F 36.4 °F 41.0 °F 87% 30.14 in 6.0 mi North 20.7 mph 27.6 mph N/A   Overcast
1:55 AM 44.6 °F 35.7 °F 41.0 °F 87% 30.14 in 7.0 mi North 24.2 mph - 0.02 in   Mostly Cloudy
2:15 AM 44.6 °F 35.3 °F 41.0 °F 87% 30.11 in 9.0 mi North 26.5 mph 35.7 mph N/A   Overcast
2:35 AM 46.4 °F 38.3 °F 42.8 °F 87% 30.10 in 8.0 mi NNE 23.0 mph 40.3 mph N/A   Overcast
2:55 AM 46.4 °F 39.2 °F 41.0 °F 81% 30.14 in 6.0 mi North 18.4 mph 24.2 mph N/A   Overcast
3:15 AM 44.6 °F 34.2 °F 41.0 °F 87% 30.15 in 2.0 mi NNW 33.4 mph - N/A   Mostly Cloudy
3:35 AM 42.8 °F 32.7 °F 41.0 °F 93% 30.14 in 1.0 mi North 27.6 mph 39.1 mph N/A   Mostly Cloudy
3:55 AM 41.0 °F 29.7 °F 41.0 °F 100% 30.16 in 1.5 mi NNW 31.1 mph 39.1 mph 0.34 in   Mostly Cloudy
4:15 AM 41.0 °F 29.1 °F 41.0 °F 100% 30.12 in 3.0 mi NNW 34.5 mph 42.6 mph N/A   Mostly Cloudy
4:35 AM 41.0 °F 30.0 °F 41.0 °F 100% 30.13 in 6.0 mi North 28.8 mph 35.7 mph N/A   Mostly Cloudy
4:55 AM 41.0 °F 30.2 °F 41.0 °F 100% 30.11 in 2.5 mi NNE 27.6 mph 34.5 mph 0.05 in   Mostly Cloudy
5:15 AM 42.8 °F 34.3 °F 42.8 °F 100% 30.10 in 1.0 mi NE 19.6 mph 25.3 mph N/A   Overcast
5:35 AM 44.6 °F 37.4 °F 42.8 °F 93% 30.10 in 1.0 mi NE 16.1 mph 26.5 mph N/A   Overcast
5:55 AM 46.4 °F 40.4 °F 44.6 °F 93% 30.09 in 1.0 mi NE 13.8 mph 21.9 mph 0.56 in   Overcast
6:15 AM 50.0 °F - 46.4 °F 87% 30.10 in 1.8 mi ENE 10.4 mph 16.1 mph N/A   Overcast
6:35 AM 50.0 °F - 48.2 °F 94% 30.12 in 2.0 mi Variable 5.8 mph 13.8 mph N/A   Overcast
6:55 AM 48.2 °F - 46.4 °F 93% 30.12 in 2.0 mi North 19.6 mph - 0.33 in   Overcast
7:05 AM 48.2 °F - 46.4 °F 93% 30.12 in 3.0 mi North 19.6 mph 26.5 mph N/A   Overcast
7:35 AM 46.4 °F 38.5 °F 44.6 °F 93% 30.13 in 3.0 mi North 21.9 mph 28.8 mph N/A   Scattered Clouds
7:55 AM 46.4 °F 37.0 °F 44.6 °F 93% 30.12 in 4.0 mi North 31.1 mph - 0.04 in   Scattered Clouds
8:15 AM 42.8 °F 32.5 °F 42.8 °F 100% 30.12 in 3.0 mi North 28.8 mph - N/A   Scattered Clouds
8:35 AM 42.8 °F 32.7 °F 41.0 °F 93% 30.13 in 1.0 mi North 27.6 mph 34.5 mph N/A   Mostly Cloudy
8:50 AM 42.8 °F 33.3 °F 42.8 °F 100% 30.15 in 2.0 mi North 24.2 mph 34.5 mph N/A   Scattered Clouds
9:15 AM 42.8 °F 32.9 °F 41.0 °F 93% 30.15 in 2.0 mi North 26.5 mph 32.2 mph N/A   Mostly Cloudy
10:05 AM 44.6 °F 35.3 °F 42.8 °F 93% 30.15 in 6.0 mi North 26.5 mph 34.5 mph N/A   Scattered Clouds
10:30 AM 44.6 °F 35.9 °F 42.8 °F 93% 30.16 in 6.0 mi North 23.0 mph 29.9 mph N/A   Partly Cloudy
11:55 AM 46.4 °F 39.2 °F 44.6 °F 93% 30.15 in 1.8 mi North 18.4 mph - N/A   Mostly Cloudy
12:15 PM 46.4 °F 39.5 °F 44.6 °F 93% 30.14 in 3.0 mi North 17.3 mph - N/A   Scattered Clouds
12:35 PM 46.4 °F 39.5 °F 46.4 °F 100% 30.13 in 3.0 mi North 17.3 mph 23.0 mph N/A   Scattered Clouds
12:55 PM 46.4 °F 39.2 °F 44.6 °F 93% 30.12 in 5.0 mi North 18.4 mph - N/A   Scattered Clouds
1:15 PM 46.4 °F 38.7 °F 44.6 °F 93% 30.10 in 2.5 mi North 20.7 mph - N/A   Partly Cloudy
1:35 PM 46.4 °F 38.3 °F 44.6 °F 93% 30.09 in 3.0 mi North 23.0 mph 29.9 mph N/A   Partly Cloudy
1:55 PM 46.4 °F 38.5 °F 44.6 °F 93% 30.09 in 3.0 mi North 21.9 mph 29.9 mph N/A   Partly Cloudy
2:15 PM 46.4 °F 38.5 °F 44.6 °F 93% 30.08 in 6.0 mi North 21.9 mph - N/A   Partly Cloudy
2:35 PM 46.4 °F 39.0 °F 44.6 °F 93% 30.07 in 7.0 mi North 19.6 mph - N/A   Partly Cloudy
2:55 PM 46.4 °F 39.2 °F 44.6 °F 93% 30.06 in 6.0 mi North 18.4 mph - N/A   Partly Cloudy
3:15 PM 46.4 °F 39.0 °F 44.6 °F 93% 30.06 in 4.0 mi North 19.6 mph - N/A   Scattered Clouds
3:35 PM 46.4 °F 39.0 °F 44.6 °F 93% 30.05 in 3.0 mi NNE 19.6 mph - N/A   Partly Cloudy
3:55 PM 46.4 °F 38.7 °F 44.6 °F 93% 30.04 in 3.0 mi North 20.7 mph - N/A   Clear
4:15 PM 46.4 °F 39.2 °F 44.6 °F 93% 30.04 in 5.0 mi NNE 18.4 mph - N/A   Clear
4:35 PM 46.4 °F 39.0 °F 44.6 °F 93% 30.04 in 7.0 mi North 19.6 mph - N/A   Scattered Clouds
4:55 PM 48.2 °F - 46.4 °F 93% 30.04 in 3.0 mi North 18.4 mph 24.2 mph N/A   Partly Cloudy
5:15 PM 48.2 °F - 46.4 °F 93% 30.04 in 6.0 mi NNE 19.6 mph - N/A   Partly Cloudy
5:35 PM 48.2 °F - 46.4 °F 93% 30.04 in 5.0 mi NNE 18.4 mph - N/A   Mostly Cloudy
5:55 PM 48.2 °F - 46.4 °F 93% 30.04 in 4.0 mi NNE 20.7 mph - N/A   Mostly Cloudy
6:15 PM 50.0 °F - 46.4 °F 87% 30.04 in 4.0 mi NNE 17.3 mph 23.0 mph N/A   Mostly Cloudy
6:35 PM 50.0 °F - 46.4 °F 87% 30.03 in 6.0 mi NNE 19.6 mph - N/A   Overcast
6:55 PM 50.0 °F - 48.2 °F 94% 30.03 in 6.0 mi NE 12.7 mph 21.9 mph N/A   Overcast
7:15 PM 51.8 °F - 48.2 °F 88% 30.03 in 7.0 mi NNE 16.1 mph 21.9 mph N/A   Overcast
7:35 PM 51.8 °F - 48.2 °F 88% 30.03 in 8.0 mi NNE 15.0 mph 20.7 mph N/A   Overcast
7:55 PM 51.8 °F - 48.2 °F 88% 30.03 in 10.0 mi NNE 17.3 mph - N/A   Overcast
8:15 PM 51.8 °F - 48.2 °F 88% 30.03 in 10.0 mi NNE 12.7 mph 23.0 mph N/A   Overcast
8:35 PM 51.8 °F - 48.2 °F 88% 30.03 in 10.0 mi NNE 11.5 mph 20.7 mph N/A   Overcast
8:55 PM 53.6 °F - 48.2 °F 82% 30.03 in 10.0 mi NNE 15.0 mph - N/A   Overcast
9:15 PM 51.8 °F - 48.2 °F 88% 30.03 in 10.0 mi NNE 13.8 mph 21.9 mph N/A   Overcast
9:35 PM 53.6 °F - 48.2 °F 82% 30.03 in 10.0 mi NNE 13.8 mph 20.7 mph N/A   Overcast
9:55 PM 51.8 °F - 48.2 °F 88% 30.04 in 10.0 mi NNE 15.0 mph 21.9 mph N/A   Overcast
10:15 PM 53.6 °F - 48.2 °F 82% 30.04 in 10.0 mi NNE 15.0 mph - N/A   Overcast
10:35 PM 51.8 °F - 48.2 °F 88% 30.04 in 10.0 mi NNE 15.0 mph - N/A   Overcast
10:55 PM 53.6 °F - 50.0 °F 88% 30.04 in 10.0 mi NNE 13.8 mph 21.9 mph N/A   Overcast
11:15 PM 55.4 °F - 48.2 °F 77% 30.03 in 10.0 mi NNE 16.1 mph - N/A   Overcast
11:35 PM 55.4 °F - 50.0 °F 82% 30.03 in 10.0 mi NNE 10.4 mph 17.3 mph N/A   Overcast
11:55 PM 55.4 °F - 50.0 °F 82% 30.02 in 10.0 mi NE 10.4 mph 21.9 mph N/A   Overcast